createdAt,value
2018-12-27T00:00:16.236Z,88.80
2018-12-27T00:02:46.040Z,88.90
2018-12-27T00:05:15.767Z,89.00
2018-12-27T00:07:45.317Z,88.90
2018-12-27T00:10:14.947Z,88.70
2018-12-27T00:12:44.351Z,88.80
2018-12-27T00:15:13.960Z,89.00
2018-12-27T00:17:43.542Z,89.10
2018-12-27T00:20:14.582Z,90.20
2018-12-27T00:22:44.128Z,90.10
2018-12-27T00:25:13.755Z,90.20
2018-12-27T00:27:43.444Z,90.20
2018-12-27T00:30:12.989Z,90.20
2018-12-27T00:32:42.595Z,90.30
2018-12-27T00:35:12.211Z,90.40
2018-12-27T00:37:41.738Z,90.50
2018-12-27T00:40:11.311Z,90.40
2018-12-27T00:42:40.953Z,90.40
2018-12-27T00:45:10.492Z,90.80
2018-12-27T00:47:40.173Z,90.60
2018-12-27T00:50:09.865Z,90.60
2018-12-27T00:52:39.586Z,90.30
2018-12-27T00:55:09.176Z,90.30
2018-12-27T00:57:38.875Z,90.10
2018-12-27T01:00:08.577Z,90.00
2018-12-27T01:02:38.383Z,89.60
2018-12-27T01:05:07.938Z,89.60
2018-12-27T01:07:37.423Z,89.50
2018-12-27T01:10:07.171Z,89.30
2018-12-27T01:12:36.718Z,89.10
2018-12-27T01:15:06.273Z,89.00
2018-12-27T01:17:35.887Z,89.10
2018-12-27T01:20:05.439Z,88.80
2018-12-27T01:22:35.259Z,88.00
2018-12-27T01:25:04.875Z,88.00
2018-12-27T01:27:34.366Z,87.90
2018-12-27T01:30:03.905Z,87.70
2018-12-27T01:32:33.424Z,88.20
2018-12-27T01:35:02.941Z,87.90
2018-12-27T01:37:32.516Z,88.00
2018-12-27T01:40:02.132Z,88.10
2018-12-27T01:42:31.688Z,88.40
2018-12-27T01:45:01.358Z,88.30
2018-12-27T01:47:30.966Z,88.10
2018-12-27T01:50:00.577Z,88.00
2018-12-27T01:52:30.062Z,87.50
2018-12-27T01:54:59.634Z,87.50
2018-12-27T01:57:29.230Z,86.90
2018-12-27T01:59:58.782Z,86.50
2018-12-27T02:02:28.334Z,86.20
2018-12-27T02:04:57.830Z,85.30
2018-12-27T02:07:27.463Z,85.00
2018-12-27T02:09:57.101Z,85.00
2018-12-27T02:12:26.671Z,85.00
2018-12-27T02:14:56.200Z,85.30
2018-12-27T02:17:25.743Z,84.90
2018-12-27T02:19:55.237Z,84.80
2018-12-27T02:22:24.873Z,84.60
2018-12-27T02:24:54.556Z,84.80
2018-12-27T02:27:24.066Z,84.40
2018-12-27T02:29:53.521Z,84.50
2018-12-27T02:32:23.251Z,84.10
2018-12-27T02:34:52.972Z,84.10
2018-12-27T02:37:22.538Z,84.40
2018-12-27T02:39:52.128Z,84.10
2018-12-27T02:42:32.778Z,84.00
2018-12-27T02:45:02.400Z,83.90
2018-12-27T02:47:31.921Z,83.90
2018-12-27T02:50:01.334Z,83.50
2018-12-27T02:52:30.863Z,85.10
2018-12-27T02:55:00.441Z,86.00
2018-12-27T02:57:29.972Z,86.70
2018-12-27T02:59:59.513Z,86.90
2018-12-27T03:02:29.000Z,87.60
2018-12-27T03:04:58.547Z,88.10
2018-12-27T03:07:28.055Z,88.30
2018-12-27T03:09:57.506Z,88.40
2018-12-27T03:12:27.020Z,88.60
2018-12-27T03:14:56.567Z,89.00
2018-12-27T03:17:26.121Z,89.10
2018-12-27T03:19:55.597Z,89.20
2018-12-27T03:22:25.130Z,89.40
2018-12-27T03:24:54.605Z,89.60
2018-12-27T03:27:24.167Z,90.30
2018-12-27T03:29:53.693Z,90.00
2018-12-27T03:32:23.288Z,89.90
2018-12-27T03:34:52.854Z,90.00
2018-12-27T03:37:22.266Z,90.10
2018-12-27T03:39:51.931Z,89.90
2018-12-27T03:42:21.705Z,89.60
2018-12-27T03:44:51.211Z,89.50
2018-12-27T03:47:20.709Z,89.50
2018-12-27T03:49:50.237Z,89.50
2018-12-27T03:52:19.846Z,90.00
2018-12-27T03:54:49.313Z,90.00
2018-12-27T03:57:18.734Z,90.00
2018-12-27T03:59:48.242Z,90.10
2018-12-27T04:02:17.694Z,90.20
2018-12-27T04:04:47.190Z,90.30
2018-12-27T04:07:16.677Z,90.40
2018-12-27T04:09:46.201Z,90.40
2018-12-27T04:12:15.671Z,90.40
2018-12-27T04:14:45.310Z,90.50
2018-12-27T04:17:14.714Z,90.50
2018-12-27T04:19:44.157Z,90.30
2018-12-27T04:22:13.521Z,90.40
2018-12-27T04:24:43.712Z,90.40
2018-12-27T04:27:13.400Z,90.30
2018-12-27T04:29:42.841Z,90.30
2018-12-27T04:32:12.437Z,90.00
2018-12-27T04:34:42.015Z,89.80
2018-12-27T04:37:11.769Z,89.40
2018-12-27T04:39:41.101Z,88.00
2018-12-27T04:42:10.730Z,87.10
2018-12-27T04:44:40.386Z,86.60
2018-12-27T04:47:09.923Z,87.00
2018-12-27T04:49:39.305Z,88.40
2018-12-27T04:52:11.579Z,88.90
2018-12-27T04:54:41.039Z,89.20
2018-12-27T04:57:10.670Z,89.60
2018-12-27T04:59:40.141Z,89.70
2018-12-27T05:02:09.529Z,90.00
2018-12-27T05:04:38.920Z,90.00
2018-12-27T05:07:08.229Z,89.80
2018-12-27T05:09:37.590Z,89.70
2018-12-27T05:12:06.852Z,89.60
2018-12-27T05:14:36.211Z,89.80
2018-12-27T05:17:05.759Z,90.00
2018-12-27T05:19:35.129Z,90.00
2018-12-27T05:22:04.498Z,90.00
2018-12-27T05:24:33.858Z,89.80
2018-12-27T05:27:03.181Z,89.80
2018-12-27T05:29:32.526Z,90.00
2018-12-27T05:32:01.919Z,89.60
2018-12-27T05:34:31.234Z,89.80
2018-12-27T05:37:00.583Z,89.90
2018-12-27T05:39:29.948Z,89.60
2018-12-27T05:41:59.289Z,89.70
2018-12-27T05:44:28.757Z,89.90
2018-12-27T05:46:58.346Z,90.00
2018-12-27T05:49:27.761Z,89.90
2018-12-27T05:51:57.137Z,90.00
2018-12-27T05:54:26.543Z,90.00
2018-12-27T05:56:55.838Z,90.10
2018-12-27T05:59:25.554Z,90.20
2018-12-27T06:01:54.946Z,90.20
2018-12-27T06:04:24.279Z,90.40
2018-12-27T06:06:53.704Z,90.40
2018-12-27T06:09:23.081Z,90.50
2018-12-27T06:11:52.388Z,90.50
2018-12-27T06:14:21.764Z,90.50
2018-12-27T06:16:51.105Z,90.50
2018-12-27T06:19:20.405Z,90.40
2018-12-27T06:21:49.713Z,90.50
2018-12-27T06:24:19.130Z,90.50
2018-12-27T06:26:48.485Z,90.50
2018-12-27T06:29:17.803Z,90.90
2018-12-27T06:31:47.177Z,90.50
2018-12-27T06:34:16.725Z,90.50
2018-12-27T06:36:46.205Z,90.40
2018-12-27T06:39:15.765Z,90.40
2018-12-27T06:41:45.056Z,90.40
2018-12-27T06:44:14.483Z,90.40
2018-12-27T06:46:43.922Z,90.50
2018-12-27T06:49:13.401Z,90.50
2018-12-27T06:51:42.773Z,90.80
2018-12-27T06:54:12.171Z,90.50
2018-12-27T06:56:41.628Z,90.50
2018-12-27T06:59:11.131Z,90.40
2018-12-27T07:01:40.712Z,90.40
2018-12-27T07:04:10.227Z,90.40
2018-12-27T07:06:39.581Z,90.40
2018-12-27T07:09:09.250Z,90.40
2018-12-27T07:11:38.939Z,90.40
2018-12-27T07:14:08.310Z,90.50
2018-12-27T07:16:37.734Z,90.50
2018-12-27T07:19:07.077Z,90.50
2018-12-27T07:21:36.439Z,91.00
2018-12-27T07:24:05.890Z,90.70
2018-12-27T07:26:35.245Z,90.70
2018-12-27T07:29:04.765Z,90.70
2018-12-27T07:31:34.330Z,90.60
2018-12-27T07:34:03.800Z,90.50
2018-12-27T07:36:33.342Z,90.70
2018-12-27T07:39:02.750Z,90.70
2018-12-27T07:41:32.258Z,90.70
2018-12-27T07:44:01.612Z,90.70
2018-12-27T07:46:31.219Z,90.70
2018-12-27T07:49:00.587Z,90.80
2018-12-27T07:51:30.057Z,90.70
2018-12-27T07:53:59.419Z,90.80
2018-12-27T07:56:28.798Z,90.80
2018-12-27T07:58:58.378Z,90.70
2018-12-27T08:01:27.801Z,90.60
2018-12-27T08:03:57.245Z,90.80
2018-12-27T08:06:26.655Z,90.50
2018-12-27T08:08:55.930Z,90.40
2018-12-27T08:11:25.274Z,90.50
2018-12-27T08:13:54.690Z,90.50
2018-12-27T08:16:24.065Z,90.50
2018-12-27T08:18:53.722Z,90.50
2018-12-27T08:21:23.288Z,90.60
2018-12-27T08:23:52.846Z,90.60
2018-12-27T08:26:22.427Z,90.50
2018-12-27T08:28:51.963Z,90.50
2018-12-27T08:31:21.469Z,90.60
2018-12-27T08:33:51.078Z,90.60
2018-12-27T08:36:20.703Z,90.30
2018-12-27T08:38:50.091Z,90.20
2018-12-27T08:41:19.573Z,90.00
2018-12-27T08:43:50.751Z,89.60
2018-12-27T08:46:20.516Z,89.10
2018-12-27T08:48:50.196Z,89.00
2018-12-27T08:51:19.798Z,88.90
2018-12-27T08:53:49.275Z,88.70
2018-12-27T08:56:18.859Z,88.40
2018-12-27T08:58:48.354Z,88.20
2018-12-27T09:01:17.926Z,86.90
2018-12-27T09:03:47.426Z,85.80
2018-12-27T09:06:17.075Z,84.60
2018-12-27T09:08:46.549Z,83.70
2018-12-27T09:11:16.019Z,83.20
2018-12-27T09:13:45.459Z,83.00
2018-12-27T09:16:15.211Z,82.90
2018-12-27T09:18:45.034Z,82.30
2018-12-27T09:21:14.544Z,81.40
2018-12-27T09:23:44.097Z,81.50
2018-12-27T09:26:13.610Z,80.80
2018-12-27T09:28:43.021Z,80.80
2018-12-27T09:31:12.580Z,80.50
2018-12-27T09:33:42.239Z,80.60
2018-12-27T09:36:11.875Z,80.10
2018-12-27T09:38:41.246Z,80.20
2018-12-27T09:41:10.745Z,80.10
2018-12-27T09:43:40.121Z,79.60
2018-12-27T09:46:09.582Z,79.50
2018-12-27T09:48:38.977Z,79.50
2018-12-27T09:51:08.373Z,79.60
2018-12-27T09:53:37.995Z,79.10
2018-12-27T09:56:07.892Z,78.70
2018-12-27T09:58:38.265Z,78.70
2018-12-27T10:01:08.230Z,79.10
2018-12-27T10:03:38.832Z,79.00
2018-12-27T10:06:08.450Z,78.80
2018-12-27T10:08:38.202Z,79.10
2018-12-27T10:11:07.969Z,78.90
2018-12-27T10:13:37.656Z,78.70
2018-12-27T10:16:07.198Z,78.70
2018-12-27T10:18:36.904Z,78.80
2018-12-27T10:21:06.425Z,78.30
2018-12-27T10:23:36.065Z,78.20
2018-12-27T10:26:05.540Z,78.10
2018-12-27T10:28:35.127Z,77.80
2018-12-27T10:31:04.766Z,77.80
2018-12-27T10:33:34.323Z,77.40
2018-12-27T10:36:04.191Z,77.50
2018-12-27T10:38:34.212Z,76.70
2018-12-27T10:41:06.981Z,76.70
2018-12-27T10:43:36.586Z,76.10
2018-12-27T10:46:06.102Z,76.00
2018-12-27T10:48:35.880Z,75.00
2018-12-27T10:51:05.598Z,74.40
2018-12-27T10:53:35.610Z,73.50
2018-12-27T10:56:05.242Z,72.80
2018-12-27T10:58:34.847Z,73.10
2018-12-27T11:01:04.457Z,72.50
2018-12-27T11:03:34.173Z,72.60
2018-12-27T11:06:04.171Z,73.00
2018-12-27T11:08:33.860Z,72.20
2018-12-27T11:11:03.463Z,72.30
2018-12-27T11:13:33.180Z,72.20
2018-12-27T11:16:02.745Z,71.60
2018-12-27T11:18:32.522Z,71.20
2018-12-27T11:21:02.602Z,70.70
2018-12-27T11:23:32.279Z,70.80
2018-12-27T11:26:01.893Z,70.50
2018-12-27T11:28:31.623Z,69.80
2018-12-27T11:31:01.285Z,69.30
2018-12-27T11:33:30.914Z,69.70
2018-12-27T11:36:01.162Z,69.40
2018-12-27T11:38:30.884Z,69.30
2018-12-27T11:41:00.468Z,69.50
2018-12-27T11:43:30.007Z,69.00
2018-12-27T11:45:59.492Z,68.90
2018-12-27T11:48:28.960Z,68.50
2018-12-27T11:50:58.671Z,68.20
2018-12-27T11:53:28.074Z,68.20
2018-12-27T11:55:57.534Z,67.30
2018-12-27T11:58:26.859Z,68.00
2018-12-27T12:00:56.643Z,68.30
2018-12-27T12:03:26.224Z,67.60
2018-12-27T12:06:02.994Z,66.80
2018-12-27T12:08:27.086Z,67.20
2018-12-27T12:10:56.609Z,67.70
2018-12-27T12:13:26.291Z,66.20
2018-12-27T12:15:56.963Z,65.70
2018-12-27T12:18:26.725Z,65.80
2018-12-27T12:20:56.329Z,66.00
2018-12-27T12:23:25.902Z,66.10
2018-12-27T12:25:55.643Z,66.10
2018-12-27T12:28:25.546Z,65.70
2018-12-27T12:30:55.152Z,66.20
2018-12-27T12:33:25.047Z,65.60
2018-12-27T12:35:54.787Z,65.70
2018-12-27T12:38:25.137Z,65.40
2018-12-27T12:40:55.178Z,65.90
2018-12-27T12:43:25.136Z,65.60
2018-12-27T12:45:54.678Z,65.40
2018-12-27T12:48:24.426Z,65.50
2018-12-27T12:50:54.089Z,66.10
2018-12-27T12:53:23.874Z,66.10
2018-12-27T12:55:56.536Z,66.40
2018-12-27T12:58:26.098Z,65.70
2018-12-27T13:00:55.753Z,66.50
2018-12-27T13:03:25.474Z,67.10
2018-12-27T13:05:55.104Z,67.20
2018-12-27T13:08:24.621Z,67.00
2018-12-27T13:10:54.014Z,67.40
2018-12-27T13:13:23.496Z,67.70
2018-12-27T13:15:53.284Z,67.80
2018-12-27T13:18:22.827Z,67.80
2018-12-27T13:20:52.319Z,68.10
2018-12-27T13:23:21.851Z,68.10
2018-12-27T13:25:51.388Z,68.00
2018-12-27T13:28:21.067Z,67.90
2018-12-27T13:30:50.466Z,67.40
2018-12-27T13:33:20.035Z,66.70
2018-12-27T13:35:49.575Z,67.00
2018-12-27T13:38:19.084Z,66.70
2018-12-27T13:40:48.764Z,66.20
2018-12-27T13:43:24.069Z,66.50
2018-12-27T13:45:53.997Z,65.70
2018-12-27T13:48:23.765Z,65.80
2018-12-27T13:50:53.261Z,64.50
2018-12-27T13:53:22.686Z,65.00
2018-12-27T13:55:52.281Z,65.10
2018-12-27T13:58:21.898Z,64.70
2018-12-27T14:00:51.355Z,65.20
2018-12-27T14:03:20.865Z,65.20
2018-12-27T14:05:50.513Z,65.80
2018-12-27T14:08:20.338Z,64.90
2018-12-27T14:10:49.933Z,65.60
2018-12-27T14:13:19.535Z,65.90
2018-12-27T14:15:49.202Z,66.20
2018-12-27T14:18:18.896Z,65.90
2018-12-27T14:20:48.436Z,66.20
2018-12-27T14:23:17.886Z,66.40
2018-12-27T14:25:47.904Z,66.80
2018-12-27T14:28:17.459Z,66.80
2018-12-27T14:30:47.224Z,67.80
2018-12-27T14:33:16.898Z,67.50
2018-12-27T14:35:46.715Z,67.90
2018-12-27T14:38:16.548Z,68.00
2018-12-27T14:40:46.189Z,68.00
2018-12-27T14:43:15.853Z,68.00
2018-12-27T14:45:45.598Z,68.10
2018-12-27T14:48:15.419Z,68.60
2018-12-27T14:50:45.344Z,68.90
2018-12-27T14:53:15.068Z,69.00
2018-12-27T14:55:44.838Z,69.20
2018-12-27T14:58:14.383Z,69.30
2018-12-27T15:00:44.060Z,69.00
2018-12-27T15:03:13.695Z,68.80
2018-12-27T15:05:43.438Z,68.80
2018-12-27T15:08:14.456Z,69.00
2018-12-27T15:10:44.197Z,70.40
2018-12-27T15:13:13.911Z,72.20
2018-12-27T15:15:43.758Z,72.70
2018-12-27T15:18:13.440Z,72.60
2018-12-27T15:20:43.001Z,73.10
2018-12-27T15:23:15.971Z,73.80
2018-12-27T15:25:45.807Z,73.90
2018-12-27T15:28:15.448Z,73.90
2018-12-27T15:30:45.454Z,74.10
2018-12-27T15:33:15.349Z,74.50
2018-12-27T15:35:45.167Z,74.60
2018-12-27T15:38:14.819Z,74.80
2018-12-27T15:40:44.502Z,74.90
2018-12-27T15:43:14.507Z,75.20
2018-12-27T15:45:44.313Z,76.80
2018-12-27T15:48:13.943Z,76.70
2018-12-27T15:50:43.889Z,76.40
2018-12-27T15:53:13.804Z,76.90
2018-12-27T15:55:43.740Z,77.20
2018-12-27T15:58:13.319Z,77.90
2018-12-27T16:00:43.152Z,78.10
2018-12-27T16:03:12.858Z,78.70
2018-12-27T16:05:42.589Z,78.00
2018-12-27T16:08:12.137Z,78.00
2018-12-27T16:10:41.822Z,78.30
2018-12-27T16:13:11.552Z,79.40
2018-12-27T16:15:41.516Z,79.70
2018-12-27T16:18:11.680Z,80.80
2018-12-27T16:20:41.716Z,81.60
2018-12-27T16:23:11.827Z,81.30
2018-12-27T16:25:41.516Z,81.20
2018-12-27T16:28:11.342Z,81.40
2018-12-27T16:30:41.000Z,81.40
2018-12-27T16:33:10.767Z,82.00
2018-12-27T16:35:40.611Z,82.50
2018-12-27T16:38:10.268Z,82.40
2018-12-27T16:40:39.932Z,82.40
2018-12-27T16:43:09.475Z,82.20
2018-12-27T16:45:39.146Z,82.10
2018-12-27T16:48:08.814Z,82.20
2018-12-27T16:50:38.707Z,81.90
2018-12-27T16:53:08.310Z,82.20
2018-12-27T16:55:38.418Z,83.00
2018-12-27T16:58:07.903Z,82.70
2018-12-27T17:00:37.380Z,82.70
2018-12-27T17:03:07.059Z,83.20
2018-12-27T17:05:36.742Z,83.20
2018-12-27T17:08:06.658Z,83.30
2018-12-27T17:10:36.470Z,83.20
2018-12-27T17:13:06.391Z,83.20
2018-12-27T17:15:36.123Z,82.70
2018-12-27T17:18:05.944Z,82.70
2018-12-27T17:20:36.052Z,82.60
2018-12-27T17:23:05.784Z,83.30
2018-12-27T17:25:35.473Z,83.10
2018-12-27T17:28:05.195Z,82.90
2018-12-27T17:30:34.885Z,83.10
2018-12-27T17:33:04.643Z,83.30
2018-12-27T17:35:34.608Z,83.60
2018-12-27T17:38:04.154Z,83.50
2018-12-27T17:40:33.723Z,83.80
2018-12-27T17:43:03.390Z,83.80
2018-12-27T17:45:32.975Z,84.30
2018-12-27T17:48:03.374Z,84.00
2018-12-27T17:50:33.774Z,84.40
2018-12-27T17:53:03.312Z,84.50
2018-12-27T17:55:32.829Z,84.60
2018-12-27T17:58:02.788Z,84.50
2018-12-27T18:00:33.047Z,84.50
2018-12-27T18:03:02.770Z,84.30
2018-12-27T18:05:32.560Z,84.40
2018-12-27T18:08:04.335Z,84.10
2018-12-27T18:10:34.198Z,84.80
2018-12-27T18:13:03.799Z,83.50
2018-12-27T18:15:33.428Z,84.00
2018-12-27T18:18:04.877Z,83.50
2018-12-27T18:20:34.567Z,83.50
2018-12-27T18:23:04.131Z,83.60
2018-12-27T18:25:33.698Z,83.70
2018-12-27T18:28:03.249Z,83.90
2018-12-27T18:30:33.831Z,84.00
2018-12-27T18:33:03.463Z,84.50
2018-12-27T18:35:33.236Z,85.10
2018-12-27T18:38:03.018Z,85.30
2018-12-27T18:40:32.555Z,85.30
2018-12-27T18:43:02.290Z,85.00
2018-12-27T18:45:32.407Z,84.90
2018-12-27T18:48:02.106Z,84.60
2018-12-27T18:50:32.302Z,84.40
2018-12-27T18:53:01.993Z,85.00
2018-12-27T18:55:31.778Z,85.20
2018-12-27T18:58:01.497Z,85.80
2018-12-27T19:00:31.421Z,86.20
2018-12-27T19:03:01.308Z,86.60
2018-12-27T19:05:31.070Z,86.90
2018-12-27T19:08:04.375Z,86.90
2018-12-27T19:10:40.992Z,86.90
2018-12-27T19:13:12.688Z,86.90
2018-12-27T19:15:57.853Z,86.30
2018-12-27T19:18:40.168Z,86.20
2018-12-27T19:21:35.742Z,86.10
2018-12-27T19:24:06.647Z,86.00
2018-12-27T19:26:36.300Z,86.40
2018-12-27T19:29:06.143Z,86.50
2018-12-27T19:31:36.270Z,86.50
2018-12-27T19:34:07.407Z,87.00
2018-12-27T19:36:37.617Z,86.90
2018-12-27T19:39:07.796Z,87.20
2018-12-27T19:41:37.423Z,87.60
2018-12-27T19:44:07.517Z,87.80
2018-12-27T19:46:37.110Z,87.80
2018-12-27T19:49:06.842Z,87.70
2018-12-27T19:51:36.749Z,87.40
2018-12-27T19:54:06.906Z,86.80
2018-12-27T19:56:37.258Z,85.90
2018-12-27T19:59:07.899Z,85.30
2018-12-27T20:01:38.117Z,86.30
2018-12-27T20:04:10.193Z,86.50
2018-12-27T20:06:40.004Z,87.40
2018-12-27T20:09:09.557Z,87.40
2018-12-27T20:11:40.704Z,87.60
2018-12-27T20:14:11.294Z,87.60
2018-12-27T20:16:43.047Z,88.10
2018-12-27T20:19:13.442Z,88.40
2018-12-27T20:22:04.757Z,88.70
2018-12-27T20:24:35.308Z,88.80
2018-12-27T20:27:07.150Z,88.90
2018-12-27T20:29:38.671Z,87.40
2018-12-27T20:32:10.318Z,88.20
2018-12-27T20:34:40.818Z,88.70
2018-12-27T20:37:12.305Z,88.90
2018-12-27T20:39:42.255Z,88.90
2018-12-27T20:42:13.756Z,88.50
2018-12-27T20:44:44.464Z,88.70
2018-12-27T20:47:15.327Z,88.50
2018-12-27T20:49:45.756Z,88.40
2018-12-27T20:52:16.567Z,88.70
2018-12-27T20:54:46.304Z,88.80
2018-12-27T20:57:16.061Z,88.80
2018-12-27T20:59:45.770Z,88.80
2018-12-27T21:02:15.772Z,88.70
2018-12-27T21:04:45.480Z,89.00
2018-12-27T21:07:15.402Z,89.00
2018-12-27T21:09:45.747Z,89.10
2018-12-27T21:12:15.499Z,88.70
2018-12-27T21:14:45.398Z,89.00
2018-12-27T21:17:15.117Z,89.10
2018-12-27T21:19:45.284Z,89.50
2018-12-27T21:22:15.244Z,89.60
2018-12-27T21:24:45.353Z,89.60
2018-12-27T21:27:15.116Z,89.30
2018-12-27T21:29:44.802Z,89.00
2018-12-27T21:32:14.710Z,89.20
2018-12-27T21:34:44.751Z,89.30
2018-12-27T21:37:14.510Z,89.50
2018-12-27T21:39:44.628Z,89.40
2018-12-27T21:42:14.422Z,89.40
2018-12-27T21:44:44.221Z,89.00
2018-12-27T21:47:13.869Z,89.20
2018-12-27T21:49:43.514Z,89.20
2018-12-27T21:52:13.344Z,88.70
2018-12-27T21:54:43.435Z,88.40
2018-12-27T21:57:13.000Z,88.60
2018-12-27T21:59:42.524Z,88.70
2018-12-27T22:02:12.225Z,88.80
2018-12-27T22:04:42.398Z,88.70
2018-12-27T22:07:12.232Z,88.60
2018-12-27T22:09:42.022Z,88.70
2018-12-27T22:12:11.828Z,88.50
2018-12-27T22:14:41.501Z,88.50
2018-12-27T22:17:11.426Z,88.10
2018-12-27T22:19:41.010Z,88.10
2018-12-27T22:22:10.881Z,88.30
2018-12-27T22:24:40.661Z,89.10
2018-12-27T22:27:10.396Z,89.40
2018-12-27T22:29:40.260Z,89.40
2018-12-27T22:32:09.835Z,89.70
2018-12-27T22:34:39.463Z,89.50
2018-12-27T22:37:10.762Z,89.40
2018-12-27T22:39:40.395Z,89.10
2018-12-27T22:42:10.203Z,89.40
2018-12-27T22:44:39.918Z,89.40
2018-12-27T22:47:09.544Z,89.40
2018-12-27T22:49:39.198Z,89.50
2018-12-27T22:52:08.896Z,89.60
2018-12-27T22:54:38.325Z,89.80
2018-12-27T22:57:07.885Z,89.30
2018-12-27T22:59:37.601Z,89.20
2018-12-27T23:02:07.246Z,89.60
2018-12-27T23:04:36.918Z,89.60
2018-12-27T23:07:06.453Z,89.60
2018-12-27T23:09:36.031Z,89.30
2018-12-27T23:12:05.796Z,89.40
2018-12-27T23:14:35.392Z,89.00
2018-12-27T23:17:04.933Z,88.20
2018-12-27T23:19:34.554Z,87.30
2018-12-27T23:22:04.099Z,87.60
2018-12-27T23:24:33.505Z,87.50
2018-12-27T23:27:03.002Z,87.20
2018-12-27T23:29:32.413Z,88.00
2018-12-27T23:32:01.902Z,89.50
2018-12-27T23:34:31.431Z,89.20
2018-12-27T23:37:00.925Z,89.30
2018-12-27T23:39:30.426Z,89.60
2018-12-27T23:41:59.848Z,90.10
2018-12-27T23:44:29.293Z,89.70
2018-12-27T23:46:58.858Z,89.90
2018-12-27T23:49:28.573Z,89.80
2018-12-27T23:51:58.086Z,90.00
2018-12-27T23:54:27.817Z,90.00
2018-12-27T23:56:57.320Z,90.00
2018-12-27T23:59:27.153Z,90.00
